KPNS/PNS METAR and TAF weather

Enter ICAO airport designator
Station Type Date Time Source
KPNS METAR 2021/05/13 05:53 UTC NOAA

KPNS 130553Z AUTO 03007KT 10SM FEW032 SCT049 OVC060 21/17 A3012 RMK AO2 SLP200 60003 T02060172 10250 20200 402940194 50002


Station Type Date Time Source
KPNS Decoded METAR 2021/05/13 05:53 UTC NOAA

PENSACOLA REGIONAL AIRPORT, FL, United States (KPNS) 30-29N 087-11W 38M
May 13, 2021 - 01:53 AM EDT / 2021.05.13 0553 UTC
Wind: from the NNE (030 degrees) at 8 MPH (7 KT):0
Visibility: 10 mile(s):0
Sky conditions: overcast
Temperature: 69.1 F (20.6 C)
Dew Point: 63.0 F (17.2 C)
Relative Humidity: 80%
Pressure (altimeter): 30.12 in. Hg (1019 hPa)
Pressure tendency: 0.01 inches (0.2 hPa) higher than three hours ago
ob: KPNS 130553Z AUTO 03007KT 10SM FEW032 SCT049 OVC060 21/17 A3012 RMK AO2 SLP200 60003 T02060172 10250 20200 402940194 50002
cycle: 6

Station Type Date Time Source
KPNS TAF 2021/05/13 06:21 UTC NOAA

TAF KPNS 130520Z 1306/1406 01008KT P6SM BKN050 BKN060 OVC080
FM130900 04007KT P6SM BKN030
FM131500 02010KT P6SM BKN050
FM131800 02009KT P6SM SCT080
FM140300 03008KT P6SM SKC

Example: see airport list